Time;durP1;ratioP1;P1;durP2;ratioP2;P2;SDS_P1;SDS_P2;PMS_P1;PMS_P2;Temp;Humidity;BMP_temperature;BMP_pressure;BME280_temperature;BME280_humidity;BME280_pressure;Samples;Min_cycle;Max_cycle;Signal;HPM_P1;HPM_P2
2022/05/14 00:00:04;;;;;;;9.60;2.47;;;;;;;12.69;54.12;100895.28;1733472;80;98870;-64
2022/05/14 00:02:30;;;;;;;8.15;2.17;;;;;;;12.69;54.13;100891.25;1733548;80;25735;-64
2022/05/14 00:04:56;;;;;;;6.15;1.98;;;;;;;12.68;54.11;100891.72;1731407;80;25790;-64
2022/05/14 00:07:22;;;;;;;4.00;2.17;;;;;;;12.66;54.20;100886.02;1735489;81;98942;-64
2022/05/14 00:09:48;;;;;;;10.13;2.58;;;;;;;12.62;54.21;100889.80;1732495;80;27463;-64
2022/05/14 00:14:58;;;;;;;11.70;2.30;;;;;;;12.57;54.27;100886.45;1694605;83;25846;-64
2022/05/14 00:17:24;;;;;;;5.37;2.35;;;;;;;12.53;54.23;100880.36;1697146;82;25795;-64
2022/05/14 00:19:51;;;;;;;8.18;2.70;;;;;;;12.48;54.32;100881.05;1692400;82;98596;-64
2022/05/14 00:22:17;;;;;;;7.95;2.50;;;;;;;12.39;54.46;100874.76;1693415;82;27400;-64
2022/05/14 00:24:45;;;;;;;9.43;2.12;;;;;;;12.38;54.60;100885.58;1693054;83;98707;-64
2022/05/14 00:27:12;;;;;;;5.92;1.90;;;;;;;12.33;54.63;100892.05;1693126;82;25726;-64
2022/05/14 00:29:41;;;;;;;17.17;2.37;;;;;;;12.30;54.67;100888.63;1692549;83;25829;-64
2022/05/14 00:32:07;;;;;;;5.40;2.25;;;;;;;12.27;54.70;100894.14;1689898;83;98791;-64
2022/05/14 00:34:33;;;;;;;6.45;2.05;;;;;;;12.23;54.77;100892.08;1698821;83;28090;-64
2022/05/14 00:37:00;;;;;;;4.87;2.33;;;;;;;12.20;54.91;100888.19;1691449;83;98727;-64
2022/05/14 00:39:28;;;;;;;10.03;2.50;;;;;;;12.19;54.98;100899.00;1690672;83;25716;-64
2022/05/14 00:41:54;;;;;;;10.05;2.37;;;;;;;12.18;55.07;100892.75;1692729;83;99165;-64
2022/05/14 00:44:22;;;;;;;9.10;2.50;;;;;;;12.17;55.08;100888.33;1693715;83;26984;-64
2022/05/14 00:47:08;;;;;;;7.70;2.37;;;;;;;12.17;55.12;100884.77;1694703;83;27509;-64
2022/05/14 00:49:35;;;;;;;3.67;1.82;;;;;;;12.16;55.15;100885.70;1695062;82;98765;-63
2022/05/14 00:52:02;;;;;;;8.95;2.27;;;;;;;12.13;55.17;100880.48;1695456;83;26592;-63
2022/05/14 00:54:36;;;;;;;8.55;2.42;;;;;;;12.11;55.28;100879.67;1696721;83;98749;-63
2022/05/14 00:57:14;;;;;;;8.78;1.95;;;;;;;12.09;55.32;100873.50;1694988;83;25737;-63
2022/05/14 00:59:40;;;;;;;6.10;2.33;;;;;;;12.08;55.36;100883.84;1697610;83;27373;-63
2022/05/14 01:02:06;;;;;;;8.43;2.42;;;;;;;12.05;55.48;100881.30;1693995;82;98519;-66
2022/05/14 01:04:34;;;;;;;9.08;2.20;;;;;;;12.02;55.53;100885.87;1689704;83;25716;-64
2022/05/14 01:07:12;;;;;;;3.60;2.10;;;;;;;11.99;55.57;100880.63;1693699;83;98737;-63
2022/05/14 01:09:43;;;;;;;7.78;2.55;;;;;;;11.96;55.67;100876.74;1691802;83;26422;-63
2022/05/14 01:12:11;;;;;;;9.15;2.17;;;;;;;11.92;55.74;100872.45;1693955;82;99009;-63
2022/05/14 01:14:38;;;;;;;8.95;2.58;;;;;;;11.88;55.79;100872.19;1689630;83;25815;-63
2022/05/14 01:17:04;;;;;;;5.15;2.42;;;;;;;11.84;55.86;100869.23;1690771;83;25828;-64
2022/05/14 01:19:32;;;;;;;6.78;2.20;;;;;;;11.82;55.89;100867.09;1690471;83;98618;-63
2022/05/14 01:22:15;;;;;;;8.95;2.72;;;;;;;11.79;55.97;100871.26;1692476;83;25696;-63
2022/05/14 01:27:42;;;;;;;9.38;2.60;;;;;;;11.71;56.11;100872.91;1698112;82;27191;-63
2022/05/14 01:30:09;;;;;;;7.12;2.47;;;;;;;11.66;56.09;100863.31;1693632;83;98777;-63
2022/05/14 01:32:39;;;;;;;7.65;2.92;;;;;;;11.63;56.21;100862.98;1693268;83;26251;-66
2022/05/14 01:35:06;;;;;;;8.25;2.52;;;;;;;11.60;56.25;100867.61;1690442;83;25847;-64
2022/05/14 01:37:32;;;;;;;8.08;2.35;;;;;;;11.58;56.32;100865.46;1693118;83;98669;-63
2022/05/14 01:39:58;;;;;;;11.10;2.58;;;;;;;11.55;56.33;100862.91;1693710;83;25833;-63
2022/05/14 01:42:24;;;;;;;6.40;2.70;;;;;;;11.52;56.43;100860.36;1691257;82;99521;-63
2022/05/14 01:44:52;;;;;;;8.98;3.20;;;;;;;11.51;56.51;100866.67;1692015;83;26715;-64
2022/05/14 01:47:18;;;;;;;6.05;2.12;;;;;;;11.47;56.54;100852.98;1690947;83;25883;-63
2022/05/14 01:49:45;;;;;;;9.05;2.62;;;;;;;11.42;56.60;100865.26;1690109;83;98769;-63
2022/05/14 01:52:13;;;;;;;8.08;2.08;;;;;;;11.38;56.70;100864.98;1692751;83;25869;-63
2022/05/14 01:54:40;;;;;;;11.90;3.30;;;;;;;11.31;56.74;100868.41;1691907;83;98837;-63
2022/05/14 01:57:06;;;;;;;8.53;3.10;;;;;;;11.27;56.95;100870.81;1690757;83;25752;-63
2022/05/14 01:59:32;;;;;;;7.80;3.15;;;;;;;11.23;57.08;100869.20;1692482;83;25796;-63
2022/05/14 02:01:58;;;;;;;10.60;2.98;;;;;;;11.16;57.15;100871.73;1689903;83;98578;-66
2022/05/14 02:04:26;;;;;;;6.00;2.92;;;;;;;11.12;57.30;100871.46;1693172;83;27247;-64
2022/05/14 02:06:52;;;;;;;7.28;2.87;;;;;;;11.09;57.42;100868.03;1690682;83;98550;-64
2022/05/14 02:09:20;;;;;;;11.97;3.35;;;;;;;11.05;57.46;100864.14;1696210;83;25748;-63
2022/05/14 02:11:46;;;;;;;6.47;2.98;;;;;;;11.02;57.58;100863.39;1693655;81;98982;-64
2022/05/14 02:14:14;;;;;;;10.20;2.75;;;;;;;10.98;57.64;100857.28;1733093;81;27494;-64
2022/05/14 02:16:43;;;;;;;6.65;2.85;;;;;;;10.97;57.69;100862.70;1730412;81;26335;-63
2022/05/14 02:19:09;;;;;;;9.28;3.20;;;;;;;10.92;57.78;100858.00;1726789;81;98834;-64
2022/05/14 02:21:36;;;;;;;19.40;3.47;;;;;;;10.91;57.92;100853.58;1726487;81;26486;-63
2022/05/14 02:24:03;;;;;;;9.35;3.58;;;;;;;10.89;58.02;100859.47;1726045;81;99443;-63
2022/05/14 02:26:30;;;;;;;15.68;3.50;;;;;;;10.87;58.32;100855.98;1730942;81;27486;-63
2022/05/14 02:28:59;;;;;;;8.80;3.55;;;;;;;10.86;58.18;100862.28;1734180;81;27134;-63
2022/05/14 02:31:27;;;;;;;21.75;4.03;;;;;;;10.84;58.27;100860.13;1731520;81;98672;-63
2022/05/14 02:33:54;;;;;;;9.50;3.47;;;;;;;10.83;58.35;100859.72;1729760;81;25728;-63
2022/05/14 02:36:20;;;;;;;10.90;3.80;;;;;;;10.83;58.45;100850.34;1730265;81;98919;-65
2022/05/14 02:38:48;;;;;;;10.23;4.47;;;;;;;10.82;58.56;100851.27;1656291;84;27401;-65
2022/05/14 02:41:14;;;;;;;9.30;3.55;;;;;;;10.81;58.70;100850.87;1731119;81;25808;-64
2022/05/14 02:43:41;;;;;;;11.93;3.55;;;;;;;10.81;58.80;100850.40;1726070;81;98669;-63
2022/05/14 02:46:07;;;;;;;16.07;3.85;;;;;;;10.83;58.92;100853.02;1728757;81;25708;-66
2022/05/14 02:48:35;;;;;;;7.03;3.25;;;;;;;10.82;58.97;100853.48;1723150;81;98795;-64
2022/05/14 02:51:02;;;;;;;10.43;3.92;;;;;;;10.84;59.03;100842.70;1728933;81;28068;-63
2022/05/14 02:53:29;;;;;;;8.70;4.70;;;;;;;10.83;59.08;100849.88;1731963;81;26575;-64
2022/05/14 02:55:58;;;;;;;10.13;3.77;;;;;;;10.84;59.09;100848.06;1726391;81;98757;-63
2022/05/14 03:01:09;;;;;;;12.25;3.95;;;;;;;10.78;59.14;100849.19;1728711;81;99024;-63
2022/05/14 03:03:35;;;;;;;12.98;3.37;;;;;;;10.74;59.13;100848.44;1728337;81;27449;-63
2022/05/14 03:06:01;;;;;;;15.43;3.50;;;;;;;10.69;59.18;100846.41;1728259;81;99082;-63
2022/05/14 03:08:28;;;;;;;9.70;3.92;;;;;;;10.63;59.38;100839.95;1701769;82;25784;-63
2022/05/14 03:10:53;;;;;;;7.97;3.55;;;;;;;10.57;59.39;100833.97;1729301;81;27534;-64
2022/05/14 03:13:19;;;;;;;12.18;4.00;;;;;;;10.52;59.43;100834.16;1729474;80;99384;-63
2022/05/14 03:15:45;;;;;;;10.63;3.62;;;;;;;10.46;59.47;100847.80;1733689;80;27467;-63
2022/05/14 03:18:12;;;;;;;12.25;3.60;;;;;;;10.43;59.51;100842.56;1735072;80;99051;-63
2022/05/14 03:20:42;;;;;;;8.75;3.95;;;;;;;10.38;59.52;100846.80;1730572;80;25812;-63
2022/05/14 03:23:10;;;;;;;12.43;4.20;;;;;;;10.36;59.55;100867.88;1732654;80;25838;-63
2022/05/14 03:25:38;;;;;;;12.63;4.00;;;;;;;10.31;59.73;100866.72;1731765;80;98944;-63
2022/05/14 03:28:04;;;;;;;15.08;4.10;;;;;;;10.26;59.78;100857.12;1730491;80;26360;-63
2022/05/14 03:30:31;;;;;;;15.15;4.70;;;;;;;10.24;59.89;100855.84;1733263;81;98081;-63
2022/05/14 03:32:59;;;;;;;6.45;3.70;;;;;;;10.25;59.95;100862.06;1731856;80;25741;-64
2022/05/14 03:35:28;;;;;;;6.70;3.70;;;;;;;10.23;60.27;100869.29;1733122;79;26053;-64
2022/05/14 03:37:55;;;;;;;14.13;3.72;;;;;;;10.21;60.36;100865.80;1733956;80;98782;-64
2022/05/14 03:40:22;;;;;;;7.95;3.80;;;;;;;10.20;60.47;100856.02;1732657;80;25735;-64
2022/05/14 03:42:49;;;;;;;10.68;3.85;;;;;;;10.21;60.79;100863.98;1732289;80;98653;-64
2022/05/14 03:45:17;;;;;;;9.30;3.60;;;;;;;10.23;60.89;100877.33;1734571;80;26197;-64
2022/05/14 03:47:44;;;;;;;8.50;3.90;;;;;;;10.22;60.96;100877.79;1731884;80;25755;-64
2022/05/14 03:50:10;;;;;;;8.83;3.90;;;;;;;10.23;61.28;100873.31;1727793;81;98526;-64
2022/05/14 03:52:36;;;;;;;11.57;4.00;;;;;;;10.25;61.17;100872.31;1735558;80;27936;-64
2022/05/14 03:55:02;;;;;;;11.93;4.22;;;;;;;10.30;61.15;100873.02;1737393;80;98822;-64
2022/05/14 03:57:30;;;;;;;10.95;3.55;;;;;;;10.35;61.23;100876.39;1730870;80;26391;-66
2022/05/14 03:59:57;;;;;;;8.28;3.50;;;;;;;10.37;61.19;100868.30;1730659;80;99041;-65
2022/05/14 04:02:23;;;;;;;7.08;3.80;;;;;;;10.40;61.19;100866.83;1736134;80;25748;-64
2022/05/14 04:04:49;;;;;;;9.30;3.72;;;;;;;10.41;61.22;100859.16;1735183;80;27962;-64
2022/05/14 04:07:16;;;;;;;12.18;3.83;;;;;;;10.45;61.19;100859.45;1737768;80;98658;-64
2022/05/14 04:09:44;;;;;;;10.08;3.65;;;;;;;10.51;61.28;100864.57;1733900;80;25826;-64
2022/05/14 04:12:10;;;;;;;12.90;4.20;;;;;;;10.54;61.23;100888.57;1733702;80;99037;-64
2022/05/14 04:14:36;;;;;;;8.25;3.98;;;;;;;10.55;61.32;100869.34;1732748;81;25811;-64
2022/05/14 04:17:03;;;;;;;13.83;3.98;;;;;;;10.59;61.30;100862.45;1729881;81;29614;-64
2022/05/14 04:19:29;;;;;;;8.05;3.75;;;;;;;10.63;61.36;100881.98;1728310;81;98852;-64
2022/05/14 04:21:57;;;;;;;10.65;4.33;;;;;;;10.60;61.36;100866.02;1728292;81;25767;-64
2022/05/14 04:24:24;;;;;;;11.12;4.72;;;;;;;10.61;61.36;100868.63;1728741;81;99238;-64
2022/05/14 04:26:50;;;;;;;7.40;3.20;;;;;;;10.63;61.34;100866.77;1728710;81;26465;-64
2022/05/14 04:29:16;;;;;;;18.50;4.15;;;;;;;10.65;61.31;100864.89;1726643;81;27480;-64
2022/05/14 04:31:42;;;;;;;13.80;4.20;;;;;;;10.68;61.35;100870.13;1732324;81;98838;-63
2022/05/14 04:34:11;;;;;;;13.93;4.50;;;;;;;10.67;61.31;100867.05;1722652;81;25819;-63
2022/05/14 04:36:37;;;;;;;16.27;3.92;;;;;;;10.69;61.28;100869.20;1728490;81;98838;-64
2022/05/14 04:39:07;;;;;;;9.05;3.80;;;;;;;10.75;61.31;100874.78;1731017;81;25874;-64
2022/05/14 04:41:33;;;;;;;14.45;4.17;;;;;;;10.76;61.34;100871.63;1731492;81;27454;-63
2022/05/14 04:43:59;;;;;;;14.53;4.05;;;;;;;10.78;61.37;100864.41;1726997;81;98918;-64
2022/05/14 04:46:28;;;;;;;12.47;3.92;;;;;;;10.80;61.44;100866.55;1732017;81;25917;-64
2022/05/14 04:48:54;;;;;;;13.90;4.45;;;;;;;10.83;61.41;100860.59;1731231;81;98999;-64
2022/05/14 04:51:20;;;;;;;17.90;4.28;;;;;;;10.86;61.41;100864.49;1728622;81;26340;-64
2022/05/14 04:53:47;;;;;;;9.70;3.67;;;;;;;10.92;61.37;100868.27;1735216;81;27265;-64
2022/05/14 04:56:13;;;;;;;12.65;4.37;;;;;;;10.93;61.33;100868.67;1731977;81;98393;-67
2022/05/14 04:58:44;;;;;;;10.98;3.95;;;;;;;10.92;61.35;100856.66;1730588;81;25775;-66
2022/05/14 05:01:12;;;;;;;8.80;4.10;;;;;;;10.94;61.35;100853.45;1729224;81;98972;-66
2022/05/14 05:03:39;;;;;;;16.25;4.35;;;;;;;10.95;61.37;100850.70;1683935;83;26528;-66
2022/05/14 05:06:06;;;;;;;6.65;3.67;;;;;;;10.96;61.33;100855.60;1730724;81;99198;-66
2022/05/14 05:08:35;;;;;;;14.93;4.12;;;;;;;11.00;61.40;100856.75;1684603;83;26787;-63
2022/05/14 05:11:03;;;;;;;11.35;3.50;;;;;;;11.05;61.54;100856.56;1733665;81;25852;-66
2022/05/14 05:13:30;;;;;;;9.58;3.72;;;;;;;11.09;61.55;100850.13;1732511;81;98887;-65
2022/05/14 05:15:57;;;;;;;13.10;3.77;;;;;;;11.15;61.57;100859.73;1715620;80;26655;-66
2022/05/14 05:18:26;;;;;;;17.60;3.90;;;;;;;11.18;61.54;100851.55;1677323;83;98956;-65
2022/05/14 05:20:55;;;;;;;8.90;4.10;;;;;;;11.25;61.60;100839.62;1680474;82;25718;-62
2022/05/14 05:23:27;;;;;;;13.22;4.30;;;;;;;11.34;61.59;100840.56;1713928;81;25556;-65
2022/05/14 05:25:56;;;;;;;6.80;4.12;;;;;;;11.45;61.77;100850.83;1721949;81;98901;-63
2022/05/14 05:28:23;;;;;;;24.55;4.65;;;;;;;11.51;61.56;100846.54;1716519;81;25767;-63
2022/05/14 05:30:50;;;;;;;10.95;4.72;;;;;;;11.57;61.52;100853.85;1715820;81;98850;-64
2022/05/14 05:33:20;;;;;;;19.12;6.10;;;;;;;11.61;61.52;100853.25;1715551;81;25985;-64
2022/05/14 05:35:47;;;;;;;15.20;4.30;;;;;;;11.67;61.51;100848.48;1718137;81;25860;-65
2022/05/14 05:38:17;;;;;;;13.28;4.15;;;;;;;11.70;61.52;100856.39;1715210;81;98718;-65
2022/05/14 05:40:44;;;;;;;17.23;4.60;;;;;;;11.74;61.46;100862.97;1714453;81;25779;-64
2022/05/14 05:43:13;;;;;;;12.03;3.98;;;;;;;11.76;61.44;100858.41;1714065;81;99595;-64
2022/05/14 05:45:44;;;;;;;8.85;4.40;;;;;;;11.78;61.54;100866.83;1721234;81;26173;-64
2022/05/14 05:48:15;;;;;;;9.53;3.62;;;;;;;11.80;61.50;100873.00;1718370;81;99137;-65
2022/05/14 05:50:43;;;;;;;23.47;4.40;;;;;;;11.81;61.52;100865.34;1720864;80;25877;-63
2022/05/14 05:53:08;;;;;;;12.25;4.12;;;;;;;11.91;61.53;100876.55;1725310;80;25730;-64
2022/05/14 05:58:21;;;;;;;11.55;3.95;;;;;;;12.12;61.47;100878.26;1721979;81;25738;-64
2022/05/14 06:00:48;;;;;;;11.15;4.80;;;;;;;12.24;61.45;100870.10;1720834;81;98821;-64
2022/05/14 06:03:14;;;;;;;31.90;5.00;;;;;;;12.33;61.40;100871.02;1726095;81;25712;-63
2022/05/14 06:05:41;;;;;;;34.58;5.15;;;;;;;12.35;61.34;100879.41;1724961;80;25805;-63
2022/05/14 06:08:12;;;;;;;11.95;3.92;;;;;;;12.39;61.33;100894.05;1713493;81;98551;-63
2022/05/14 06:10:41;;;;;;;9.13;3.98;;;;;;;12.44;61.30;100891.55;1727788;81;26537;-63
2022/05/14 06:13:09;;;;;;;33.28;4.80;;;;;;;12.47;61.22;100886.50;1716962;81;98758;-64
2022/05/14 06:15:39;;;;;;;22.93;4.12;;;;;;;12.53;61.21;100889.77;1722383;81;25776;-64
2022/05/14 06:18:08;;;;;;;10.15;3.80;;;;;;;12.61;61.19;100887.58;1721380;81;99099;-66
2022/05/14 06:20:38;;;;;;;26.48;4.58;;;;;;;12.72;61.18;100883.03;1720291;81;28117;-64
2022/05/14 06:23:07;;;;;;;15.65;4.37;;;;;;;12.88;61.17;100899.30;1725064;81;25894;-64
2022/05/14 06:25:34;;;;;;;14.78;3.92;;;;;;;12.91;60.99;100897.81;1722756;81;98857;-64
2022/05/14 06:28:03;;;;;;;12.15;3.67;;;;;;;12.90;60.89;100898.75;1721924;81;25973;-64
2022/05/14 06:30:32;;;;;;;9.03;3.70;;;;;;;12.94;60.90;100904.38;1718797;81;99425;-64
2022/05/14 06:33:05;;;;;;;13.72;4.22;;;;;;;12.98;60.79;100901.47;1717825;81;27399;-64
2022/05/14 06:35:34;;;;;;;11.28;4.00;;;;;;;13.01;60.83;100902.63;1719747;81;26130;-65
2022/05/14 06:38:03;;;;;;;10.90;3.70;;;;;;;13.09;60.83;100900.03;1715659;81;98767;-65
2022/05/14 06:40:29;;;;;;;7.83;3.92;;;;;;;13.09;60.73;100908.11;1725509;81;25597;-65
2022/05/14 06:42:58;;;;;;;14.58;3.58;;;;;;;13.07;60.73;100907.31;1721013;80;98665;-65
2022/05/14 06:45:27;;;;;;;18.07;3.35;;;;;;;13.08;60.69;100901.85;1722709;81;27608;-65
2022/05/14 06:47:55;;;;;;;30.08;5.17;;;;;;;13.11;60.75;100907.55;1714991;81;108745;-65
2022/05/14 06:50:22;;;;;;;16.45;4.40;;;;;;;13.19;60.75;100902.70;1709783;81;25962;-65
2022/05/14 06:52:52;;;;;;;30.92;4.35;;;;;;;13.30;60.74;100901.21;1722154;80;26063;-65
2022/05/14 06:55:23;;;;;;;21.52;4.58;;;;;;;13.43;60.69;100897.89;1716881;81;98780;-65
2022/05/14 06:57:51;;;;;;;10.45;3.60;;;;;;;13.54;60.67;100896.88;1720596;81;28117;-64
2022/05/14 07:00:21;;;;;;;11.73;3.50;;;;;;;13.64;60.64;100894.09;1719922;80;99008;-64
2022/05/14 07:02:50;;;;;;;20.35;3.72;;;;;;;13.73;60.58;100894.97;1719926;81;25731;-65
2022/05/14 07:08:04;;;;;;;19.92;3.47;;;;;;;13.81;60.41;100894.56;1713269;81;98886;-66
2022/05/14 07:10:31;;;;;;;9.60;3.25;;;;;;;13.90;60.34;100896.30;1717810;81;26914;-67
2022/05/14 07:12:59;;;;;;;20.32;3.02;;;;;;;13.96;60.14;100891.05;1719215;81;98618;-66
2022/05/14 07:15:26;;;;;;;11.55;3.15;;;;;;;14.11;60.11;100903.70;1720557;81;25787;-66
2022/05/14 07:17:53;;;;;;;10.05;2.70;;;;;;;14.25;59.81;100893.52;1724302;81;25902;-65
2022/05/14 07:20:21;;;;;;;19.40;3.15;;;;;;;14.37;59.65;100888.81;1719298;81;98736;-66
2022/05/14 07:22:49;;;;;;;20.17;3.45;;;;;;;14.46;59.30;100882.94;1721724;81;28154;-65
2022/05/14 07:25:14;;;;;;;11.90;2.55;;;;;;;14.49;58.93;100885.95;1721357;81;98963;-66
2022/05/14 07:27:41;;;;;;;12.63;2.87;;;;;;;14.52;58.61;100881.73;1724235;81;28085;-65
2022/05/14 07:30:08;;;;;;;15.80;3.08;;;;;;;14.57;58.31;100889.09;1718007;79;99071;-65
2022/05/14 07:32:34;;;;;;;12.95;2.72;;;;;;;14.63;57.52;100875.73;1719302;81;25848;-63
2022/05/14 07:35:01;;;;;;;15.95;2.80;;;;;;;14.70;56.93;100882.05;1719926;81;27452;-64
2022/05/14 07:37:33;;;;;;;10.15;2.83;;;;;;;14.78;55.55;100893.27;1726284;81;98818;-64
2022/05/14 07:40:16;;;;;;;18.37;3.72;;;;;;;14.83;55.82;100877.69;1720142;81;25884;-65
2022/05/14 07:42:54;;;;;;;25.37;4.15;;;;;;;14.91;55.57;100873.20;1722506;81;98964;-65
2022/05/14 07:45:32;;;;;;;8.53;2.20;;;;;;;15.09;55.31;100886.98;1712353;81;26575;-66
2022/05/14 07:48:02;;;;;;;18.32;3.20;;;;;;;15.19;54.59;100874.69;1718896;81;98946;-66
2022/05/14 07:50:28;;;;;;;20.85;3.87;;;;;;;15.25;54.10;100887.83;1718078;80;26498;-66
2022/05/14 07:52:56;;;;;;;42.55;4.62;;;;;;;15.32;53.74;100865.86;1722372;81;26509;-66
2022/05/14 07:55:22;;;;;;;17.70;3.70;;;;;;;15.44;53.13;100877.28;1717884;81;99029;-67
2022/05/14 07:57:51;;;;;;;21.75;2.75;;;;;;;15.54;53.18;100867.66;1720476;81;26330;-67
2022/05/14 08:00:20;;;;;;;14.47;3.12;;;;;;;15.64;53.19;100870.20;1718666;81;98958;-65
2022/05/14 08:02:46;;;;;;;16.30;2.83;;;;;;;15.71;51.67;100863.45;1722176;81;26279;-65
2022/05/14 08:05:14;;;;;;;29.85;3.58;;;;;;;15.72;51.50;100869.73;1721081;81;25838;-68
2022/05/14 08:07:40;;;;;;;13.50;2.83;;;;;;;15.73;51.22;100869.64;1725295;81;98936;-65
2022/05/14 08:10:08;;;;;;;21.05;2.90;;;;;;;15.77;51.11;100878.42;1717999;81;25862;-66
2022/05/14 08:12:38;;;;;;;18.65;3.15;;;;;;;15.73;50.25;100880.45;1712679;81;98989;-66
2022/05/14 08:15:07;;;;;;;20.52;3.37;;;;;;;15.69;50.48;100882.95;1725408;81;26796;-67
2022/05/14 08:17:34;;;;;;;14.25;2.98;;;;;;;15.75;50.28;100882.58;1731083;81;25790;-69
2022/05/14 08:20:03;;;;;;;14.03;3.30;;;;;;;15.82;50.22;100877.66;1728032;81;98866;-68
2022/05/14 08:25:14;;;;;;;11.12;2.50;;;;;;;15.87;49.67;100880.47;1723898;81;99004;-67
2022/05/14 08:27:44;;;;;;;14.75;3.37;;;;;;;15.75;49.10;100883.92;1732866;81;25843;-68
2022/05/14 08:30:21;;;;;;;20.00;3.15;;;;;;;15.67;49.29;100892.98;1727002;81;99452;-66
2022/05/14 08:32:47;;;;;;;7.10;2.45;;;;;;;15.61;49.33;100902.81;1724659;81;26688;-67
2022/05/14 08:35:16;;;;;;;13.58;2.50;;;;;;;15.53;49.42;100901.92;1734009;81;25873;-66
2022/05/14 08:37:42;;;;;;;22.80;2.87;;;;;;;15.47;49.67;100899.58;1727701;81;99007;-67
2022/05/14 08:40:31;;;;;;;11.70;2.95;;;;;;;15.43;49.81;100903.91;1730371;81;25877;-66
2022/05/14 08:43:03;;;;;;;9.83;3.02;;;;;;;15.38;50.02;100908.71;1727102;81;99023;-66
2022/05/14 08:45:37;;;;;;;18.62;3.40;;;;;;;15.30;50.04;100910.98;1731629;81;25721;-66
2022/05/14 08:48:28;;;;;;;14.73;3.22;;;;;;;15.26;49.88;100908.95;1726199;81;98990;-68
2022/05/14 08:51:05;;;;;;;15.90;3.22;;;;;;;15.21;49.68;100910.57;1724911;81;27563;-66
2022/05/14 08:53:35;;;;;;;13.53;3.22;;;;;;;15.14;49.87;100909.66;1730869;81;25930;-64
2022/05/14 08:56:36;;;;;;;26.33;3.35;;;;;;;15.15;49.81;100912.75;1732214;81;98808;-67
2022/05/14 08:59:31;;;;;;;14.63;3.20;;;;;;;15.14;49.72;100909.66;1726719;81;25784;-65
2022/05/14 09:02:17;;;;;;;22.27;3.27;;;;;;;15.13;49.78;100913.33;1725160;81;98811;-67
2022/05/14 09:04:45;;;;;;;10.68;2.47;;;;;;;15.13;50.02;100902.05;1731819;81;27089;-67
2022/05/14 09:07:11;;;;;;;15.25;3.08;;;;;;;15.24;50.05;100914.92;1733747;81;99140;-66
2022/05/14 09:09:51;;;;;;;11.83;2.70;;;;;;;15.22;50.07;100893.89;1686925;83;25737;-66
2022/05/14 09:12:23;;;;;;;9.83;2.75;;;;;;;15.23;50.19;100905.95;1656635;84;99163;-66
2022/05/14 09:14:57;;;;;;;14.30;2.95;;;;;;;15.21;50.40;100878.16;1737051;81;25775;-65
2022/05/14 09:17:28;;;;;;;14.50;3.15;;;;;;;15.46;50.54;100892.44;1732553;81;27369;-68
2022/05/14 09:19:56;;;;;;;13.62;2.77;;;;;;;15.67;50.48;100887.58;1730058;81;99124;-66
2022/05/14 09:22:28;;;;;;;17.67;3.83;;;;;;;15.80;50.43;100891.27;1735820;81;25751;-67
2022/05/14 09:25:02;;;;;;;11.35;2.65;;;;;;;15.78;50.46;100890.98;1682061;83;99180;-69
2022/05/14 09:28:03;;;;;;;10.32;2.72;;;;;;;15.71;50.42;100893.19;1724840;81;25791;-66
2022/05/14 09:30:35;;;;;;;16.12;3.52;;;;;;;15.61;50.31;100894.70;1723326;81;99177;-66
2022/05/14 09:33:03;;;;;;;15.40;3.80;;;;;;;15.57;50.38;100903.98;1735604;81;25746;-67
2022/05/14 09:35:34;;;;;;;14.70;3.45;;;;;;;15.63;50.15;100888.72;1726050;81;25810;-67
2022/05/14 09:38:21;;;;;;;23.85;4.22;;;;;;;15.74;50.05;100873.21;1733217;81;98861;-66
2022/05/14 09:40:47;;;;;;;34.48;4.25;;;;;;;15.93;49.81;100870.25;1731151;81;25765;-66
2022/05/14 09:43:22;;;;;;;24.10;3.37;;;;;;;16.19;48.75;100896.05;1729333;81;98898;-67
2022/05/14 09:46:10;;;;;;;25.05;4.10;;;;;;;16.33;48.25;100873.54;1732278;81;25734;-66
2022/05/14 09:48:49;;;;;;;20.92;3.35;;;;;;;16.46;48.39;100875.85;1731033;81;99123;-67
2022/05/14 09:51:48;;;;;;;17.20;3.20;;;;;;;16.70;48.42;100879.33;1730124;81;32947;-67
2022/05/14 09:54:32;;;;;;;33.90;3.95;;;;;;;16.94;47.79;100866.89;1719543;81;98978;-66
2022/05/14 09:57:12;;;;;;;15.72;3.00;;;;;;;17.09;47.35;100872.64;1685683;83;27511;-68
2022/05/14 09:59:58;;;;;;;25.72;3.47;;;;;;;17.14;46.92;100872.34;1729280;81;32922;-66
2022/05/14 10:02:40;;;;;;;48.30;4.33;;;;;;;17.07;46.69;100887.26;1731329;81;99159;-66
2022/05/14 10:05:52;;;;;;;52.20;5.12;;;;;;;17.01;46.79;100888.53;1728360;81;26376;-66
2022/05/14 10:08:29;;;;;;;27.20;3.45;;;;;;;17.02;46.70;100897.04;1719594;81;98826;-66
2022/05/14 10:11:15;;;;;;;16.65;3.25;;;;;;;17.08;46.76;100876.80;1728624;81;28358;-66
2022/05/14 10:13:56;;;;;;;15.55;2.83;;;;;;;17.25;46.81;100883.31;1730421;81;98901;-64
2022/05/14 10:16:42;;;;;;;13.15;2.87;;;;;;;17.22;46.41;100890.30;1680017;83;30479;-66
2022/05/14 10:19:26;;;;;;;25.27;3.55;;;;;;;17.14;46.23;100897.58;1666925;83;98928;-65
2022/05/14 10:22:21;;;;;;;33.30;4.60;;;;;;;16.94;46.00;100876.37;1685794;83;25748;-65
2022/05/14 10:28:24;;;;;;;28.42;3.42;;;;;;;16.72;46.49;100881.45;1734251;81;25744;-65
2022/05/14 10:31:15;;;;;;;22.22;3.72;;;;;;;16.62;46.71;100894.68;1733617;81;99163;-65
2022/05/14 10:33:42;;;;;;;15.05;3.33;;;;;;;16.68;47.04;100877.20;1734285;81;25703;-65
2022/05/14 10:36:22;;;;;;;45.63;4.78;;;;;;;16.77;47.03;100901.84;1731816;81;99057;-65
2022/05/14 10:38:56;;;;;;;15.53;3.22;;;;;;;16.73;47.05;100881.35;1730890;81;28535;-66
2022/05/14 10:41:37;;;;;;;20.75;3.52;;;;;;;16.85;47.21;100868.37;1735412;81;25739;-65
2022/05/14 10:44:25;;;;;;;12.82;3.47;;;;;;;16.99;47.17;100865.23;1730661;81;99265;-65
2022/05/14 10:46:56;;;;;;;21.00;3.08;;;;;;;17.15;47.01;100889.84;1736232;81;26055;-67
2022/05/14 10:49:38;;;;;;;21.70;3.37;;;;;;;17.10;46.33;100882.50;1707075;82;98970;-66
2022/05/14 10:52:15;;;;;;;19.00;3.52;;;;;;;17.18;45.78;100865.73;1684984;83;26414;-66
2022/05/14 10:54:44;;;;;;;11.80;3.47;;;;;;;17.32;45.92;100867.52;1732475;81;99128;-67
2022/05/14 10:57:21;;;;;;;23.07;2.92;;;;;;;17.55;45.46;100864.11;1734642;81;26566;-66
2022/05/14 10:59:55;;;;;;;27.30;3.50;;;;;;;17.70;45.51;100855.44;1737793;82;25797;-68
2022/05/14 11:02:34;;;;;;;17.12;3.02;;;;;;;17.86;44.27;100846.61;1729228;81;97709;-68
2022/05/14 11:05:02;;;;;;;18.70;3.90;;;;;;;17.92;43.53;100850.73;1734805;82;27598;-66
2022/05/14 11:07:38;;;;;;;12.68;2.80;;;;;;;17.87;42.52;100845.62;1736113;82;98890;-66
2022/05/14 11:10:22;;;;;;;16.02;2.70;;;;;;;17.99;42.90;100834.41;1736293;81;26813;-68
2022/05/14 11:12:50;;;;;;;15.05;3.25;;;;;;;18.12;42.78;100846.98;1733486;81;99059;-67
2022/05/14 11:15:24;;;;;;;20.55;4.10;;;;;;;18.20;41.76;100829.28;1737182;81;25796;-67
2022/05/14 11:18:16;;;;;;;16.77;3.55;;;;;;;18.12;41.90;100828.48;1692516;82;27492;-67
2022/05/14 11:21:03;;;;;;;8.65;2.45;;;;;;;18.09;41.85;100842.27;1688441;83;98669;-67
2022/05/14 11:23:29;;;;;;;19.12;3.40;;;;;;;17.96;41.91;100836.84;1697234;82;25675;-66
2022/05/14 11:26:09;;;;;;;11.28;3.08;;;;;;;17.89;41.94;100864.51;1692321;83;98876;-66
2022/05/14 11:28:38;;;;;;;14.30;2.30;;;;;;;17.80;41.74;100837.06;1689281;82;25915;-66
2022/05/14 11:31:22;;;;;;;9.23;2.72;;;;;;;17.77;41.93;100850.83;1692700;83;99064;-68
2022/05/14 11:33:50;;;;;;;17.82;3.83;;;;;;;17.71;41.79;100839.06;1691762;83;25772;-68
2022/05/14 11:36:23;;;;;;;14.68;2.47;;;;;;;17.68;42.11;100837.05;1692340;83;25782;-65
2022/05/14 11:39:24;;;;;;;18.52;3.87;;;;;;;17.77;42.25;100846.77;1690486;83;98708;-69
2022/05/14 11:41:54;;;;;;;13.03;2.60;;;;;;;17.86;42.29;100852.52;1686869;83;25930;-66
2022/05/14 11:44:37;;;;;;;16.25;2.65;;;;;;;17.90;42.02;100858.11;1688592;83;98834;-67
2022/05/14 11:47:09;;;;;;;17.17;2.85;;;;;;;17.79;42.05;100854.30;1692776;82;27180;-67
2022/05/14 11:49:40;;;;;;;11.53;2.80;;;;;;;17.64;42.25;100862.12;1683780;83;99035;-66
2022/05/14 11:52:33;;;;;;;13.75;2.50;;;;;;;17.58;42.35;100862.54;1695839;82;25755;-66
2022/05/14 11:55:11;;;;;;;13.08;2.50;;;;;;;17.56;42.42;100853.64;1686405;81;99126;-66